createdAt,value
2023-05-08T00:00:05.861Z,30.45
2023-05-08T00:01:05.861Z,30.41
2023-05-08T00:02:05.921Z,30.42
2023-05-08T00:03:06.009Z,30.41
2023-05-08T00:04:06.226Z,30.43
2023-05-08T00:05:06.043Z,30.42
2023-05-08T00:06:05.998Z,30.46
2023-05-08T00:07:06.054Z,30.45
2023-05-08T00:08:06.074Z,30.39
2023-05-08T00:09:06.128Z,30.41
2023-05-08T00:10:06.156Z,30.43
2023-05-08T00:11:06.175Z,30.41
2023-05-08T00:12:06.202Z,30.36
2023-05-08T00:13:06.240Z,30.39
2023-05-08T00:14:06.282Z,30.41
2023-05-08T00:15:06.289Z,30.39
2023-05-08T00:16:06.360Z,30.41
2023-05-08T00:17:06.419Z,30.42
2023-05-08T00:18:06.470Z,30.43
2023-05-08T00:19:06.392Z,30.42
2023-05-08T00:20:06.408Z,30.41
2023-05-08T00:21:06.466Z,30.41
2023-05-08T00:22:06.528Z,30.40
2023-05-08T00:23:06.542Z,30.41
2023-05-08T00:24:06.577Z,30.39
2023-05-08T00:25:06.610Z,30.40
2023-05-08T00:26:06.668Z,30.40
2023-05-08T00:27:06.655Z,30.45
2023-05-08T00:28:06.712Z,30.37
2023-05-08T00:29:07.077Z,30.43
2023-05-08T00:30:06.757Z,30.39
2023-05-08T00:31:06.805Z,30.40
2023-05-08T00:32:06.883Z,30.40
2023-05-08T00:33:06.986Z,30.37
2023-05-08T00:34:06.917Z,30.36
2023-05-08T00:35:06.976Z,30.35
2023-05-08T00:36:06.965Z,30.40
2023-05-08T00:37:07.038Z,30.41
2023-05-08T00:38:07.030Z,30.40
2023-05-08T00:39:07.103Z,30.39
2023-05-08T00:40:07.180Z,30.42
2023-05-08T00:41:07.176Z,30.37
2023-05-08T00:42:07.213Z,30.39
2023-05-08T00:43:07.287Z,30.42
2023-05-08T00:44:07.303Z,30.40
2023-05-08T00:45:07.347Z,30.40
2023-05-08T00:46:07.431Z,30.42
2023-05-08T00:47:07.416Z,30.37
2023-05-08T00:48:07.435Z,30.42
2023-05-08T00:49:07.461Z,30.41
2023-05-08T00:50:07.580Z,30.36
2023-05-08T00:51:07.540Z,30.39
2023-05-08T00:52:07.665Z,30.37
2023-05-08T00:53:07.700Z,30.34
2023-05-08T00:54:07.673Z,30.33
2023-05-08T00:55:07.674Z,30.36
2023-05-08T00:56:07.735Z,30.40
2023-05-08T00:57:07.788Z,30.39
2023-05-08T00:58:07.850Z,30.33
2023-05-08T00:59:07.866Z,30.39
2023-05-08T01:00:07.938Z,30.39
2023-05-08T01:01:08.016Z,30.39
2023-05-08T01:02:07.978Z,30.37
2023-05-08T01:03:08.118Z,30.43
2023-05-08T01:04:08.030Z,30.41
2023-05-08T01:05:08.110Z,30.35
2023-05-08T01:06:08.190Z,30.37
2023-05-08T01:07:08.158Z,30.40
2023-05-08T01:08:08.231Z,30.44
2023-05-08T01:09:08.223Z,30.41
2023-05-08T01:10:08.311Z,30.41
2023-05-08T01:11:08.335Z,30.38
2023-05-08T01:12:08.343Z,30.40
2023-05-08T01:13:08.532Z,30.38
2023-05-08T01:14:08.432Z,30.40
2023-05-08T01:15:08.500Z,30.36
2023-05-08T01:16:08.569Z,30.33
2023-05-08T01:17:08.544Z,30.35
2023-05-08T01:18:08.596Z,30.35
2023-05-08T01:19:08.631Z,30.38
2023-05-08T01:20:08.713Z,30.43
2023-05-08T01:21:08.730Z,30.41
2023-05-08T01:22:08.792Z,30.34
2023-05-08T01:23:08.803Z,30.36
2023-05-08T01:24:08.848Z,30.40
2023-05-08T01:25:08.909Z,30.42
2023-05-08T01:26:08.910Z,30.41
2023-05-08T01:27:09.029Z,30.34
2023-05-08T01:28:09.031Z,30.40
2023-05-08T01:29:09.093Z,30.34
2023-05-08T01:30:09.108Z,30.40
2023-05-08T01:31:09.156Z,30.38
2023-05-08T01:32:09.206Z,30.41
2023-05-08T01:33:09.332Z,30.36
2023-05-08T01:34:09.344Z,30.42
2023-05-08T01:35:09.326Z,30.36
2023-05-08T01:36:09.394Z,30.39
2023-05-08T01:37:09.451Z,30.42
2023-05-08T01:38:09.445Z,30.36
2023-05-08T01:39:09.512Z,30.40
2023-05-08T01:40:09.563Z,30.39
2023-05-08T01:41:09.619Z,30.41
2023-05-08T01:42:09.680Z,30.43
2023-05-08T01:43:09.744Z,30.39
2023-05-08T01:44:09.760Z,30.42
2023-05-08T01:45:09.803Z,30.41
2023-05-08T01:46:09.909Z,30.42
2023-05-08T01:47:09.938Z,30.49
2023-05-08T01:48:10.051Z,30.39
2023-05-08T01:49:09.987Z,30.42
2023-05-08T01:50:10.292Z,30.42
2023-05-08T01:51:10.076Z,30.42
2023-05-08T01:52:10.155Z,30.45
2023-05-08T01:53:10.228Z,30.43
2023-05-08T01:54:10.495Z,30.39
2023-05-08T01:55:10.281Z,30.40
2023-05-08T01:56:10.360Z,30.37
2023-05-08T01:57:10.434Z,30.42
2023-05-08T01:58:10.467Z,30.40
2023-05-08T01:59:10.493Z,30.39
2023-05-08T02:00:10.788Z,30.43
2023-05-08T02:01:10.622Z,30.42
2023-05-08T02:02:10.697Z,30.46
2023-05-08T02:03:10.742Z,30.40
2023-05-08T02:04:10.777Z,30.46
2023-05-08T02:05:10.827Z,30.44
2023-05-08T02:06:10.864Z,30.43
2023-05-08T02:07:10.940Z,30.47
2023-05-08T02:08:10.994Z,30.43
2023-05-08T02:09:11.052Z,30.40
2023-05-08T02:10:11.428Z,30.47
2023-05-08T02:11:11.162Z,30.46
2023-05-08T02:12:11.224Z,30.45
2023-05-08T02:13:11.262Z,30.40
2023-05-08T02:14:11.287Z,30.43
2023-05-08T02:15:11.345Z,30.43
2023-05-08T02:16:11.466Z,30.44
2023-05-08T02:17:11.460Z,30.39
2023-05-08T02:18:11.528Z,30.44
2023-05-08T02:19:11.646Z,30.43
2023-05-08T02:20:11.736Z,30.37
2023-05-08T02:21:11.701Z,30.44
2023-05-08T02:22:11.765Z,30.45
2023-05-08T02:23:11.811Z,30.43
2023-05-08T02:24:11.880Z,30.39
2023-05-08T02:25:11.921Z,30.40
2023-05-08T02:26:12.026Z,30.40
2023-05-08T02:27:12.036Z,30.43
2023-05-08T02:28:12.105Z,30.44
2023-05-08T02:29:12.131Z,30.47
2023-05-08T02:30:12.377Z,30.42
2023-05-08T02:31:12.211Z,30.46
2023-05-08T02:32:12.354Z,30.43
2023-05-08T02:33:12.426Z,30.43
2023-05-08T02:34:12.402Z,30.40
2023-05-08T02:35:12.441Z,30.46
2023-05-08T02:36:12.508Z,30.40
2023-05-08T02:37:12.570Z,30.46
2023-05-08T02:38:12.625Z,30.43
2023-05-08T02:39:12.696Z,30.42
2023-05-08T02:40:12.967Z,30.48
2023-05-08T02:41:12.802Z,30.47
2023-05-08T02:42:12.853Z,30.42
2023-05-08T02:43:12.928Z,30.43
2023-05-08T02:44:12.977Z,30.43
2023-05-08T02:45:13.029Z,30.42
2023-05-08T02:46:13.101Z,30.45
2023-05-08T02:47:13.106Z,30.42
2023-05-08T02:48:13.165Z,30.40
2023-05-08T02:49:13.209Z,30.45
2023-05-08T02:50:13.421Z,30.45
2023-05-08T02:51:13.333Z,30.44
2023-05-08T02:52:13.385Z,30.40
2023-05-08T02:53:13.450Z,30.42
2023-05-08T02:54:13.500Z,30.41
2023-05-08T02:55:13.558Z,30.41
2023-05-08T02:56:13.560Z,30.42
2023-05-08T02:57:13.638Z,30.44
2023-05-08T02:58:13.677Z,30.39
2023-05-08T02:59:13.755Z,30.38
2023-05-08T03:00:14.092Z,30.38
2023-05-08T03:01:13.882Z,30.40
2023-05-08T03:02:13.959Z,30.42
2023-05-08T03:03:14.082Z,30.41
2023-05-08T03:04:14.026Z,30.40
2023-05-08T03:05:14.097Z,30.44
2023-05-08T03:06:14.146Z,30.42
2023-05-08T03:07:14.211Z,30.44
2023-05-08T03:08:14.271Z,30.42
2023-05-08T03:09:14.264Z,30.44
2023-05-08T03:10:14.440Z,30.41
2023-05-08T03:11:14.378Z,30.47
2023-05-08T03:12:14.482Z,30.39
2023-05-08T03:13:14.521Z,30.41
2023-05-08T03:14:14.569Z,30.41
2023-05-08T03:15:14.608Z,30.43
2023-05-08T03:16:14.733Z,30.40
2023-05-08T03:17:14.740Z,30.42
2023-05-08T03:18:14.807Z,30.45
2023-05-08T03:19:14.852Z,30.42
2023-05-08T03:20:15.045Z,30.42
2023-05-08T03:21:14.959Z,30.45
2023-05-08T03:22:15.034Z,30.42
2023-05-08T03:23:15.128Z,30.48
2023-05-08T03:24:15.139Z,30.43
2023-05-08T03:25:15.185Z,30.39
2023-05-08T03:26:15.260Z,30.43
2023-05-08T03:27:15.312Z,30.42
2023-05-08T03:28:15.365Z,30.42
2023-05-08T03:29:15.457Z,30.45
2023-05-08T03:30:15.665Z,30.38
2023-05-08T03:31:15.598Z,30.43
2023-05-08T03:32:15.595Z,30.41
2023-05-08T03:33:15.670Z,30.41
2023-05-08T03:34:15.721Z,30.42
2023-05-08T03:35:15.770Z,30.43
2023-05-08T03:36:15.828Z,30.43
2023-05-08T03:37:15.902Z,30.42
2023-05-08T03:38:15.942Z,30.38
2023-05-08T03:39:16.025Z,30.45
2023-05-08T03:40:16.116Z,30.43
2023-05-08T03:41:16.118Z,30.43
2023-05-08T03:42:16.192Z,30.45
2023-05-08T03:43:16.241Z,30.50
2023-05-08T03:44:16.287Z,30.43
2023-05-08T03:45:16.352Z,30.47
2023-05-08T03:46:16.471Z,30.40
2023-05-08T03:47:16.523Z,30.43
2023-05-08T03:48:16.634Z,30.42
2023-05-08T03:49:16.640Z,30.42
2023-05-08T03:50:16.677Z,30.43
2023-05-08T03:51:16.749Z,30.39
2023-05-08T03:52:16.814Z,30.39
2023-05-08T03:53:16.869Z,30.46
2023-05-08T03:54:16.890Z,30.43
2023-05-08T03:55:16.998Z,30.47
2023-05-08T03:56:17.046Z,30.43
2023-05-08T03:57:17.130Z,30.46
2023-05-08T03:58:17.115Z,30.39
2023-05-08T03:59:17.229Z,30.39
2023-05-08T04:00:17.304Z,30.43
2023-05-08T04:01:17.401Z,30.38
2023-05-08T04:02:17.468Z,30.42
2023-05-08T04:03:17.578Z,30.42
2023-05-08T04:04:17.585Z,30.43
2023-05-08T04:05:17.581Z,30.47
2023-05-08T04:06:17.636Z,30.42
2023-05-08T04:07:17.691Z,30.43
2023-05-08T04:08:17.758Z,30.43
2023-05-08T04:09:17.804Z,30.43
2023-05-08T04:10:17.877Z,30.47
2023-05-08T04:11:17.930Z,30.50
2023-05-08T04:12:17.997Z,30.50
2023-05-08T04:13:18.106Z,30.51
2023-05-08T04:14:18.109Z,30.50
2023-05-08T04:15:18.159Z,30.48
2023-05-08T04:16:18.244Z,30.53
2023-05-08T04:17:18.280Z,30.51
2023-05-08T04:18:18.332Z,30.54
2023-05-08T04:19:18.345Z,30.57
2023-05-08T04:20:18.407Z,30.53
2023-05-08T04:21:18.504Z,30.54
2023-05-08T04:22:18.513Z,30.58
2023-05-08T04:23:18.583Z,30.56
2023-05-08T04:24:18.634Z,30.54
2023-05-08T04:25:18.695Z,30.60
2023-05-08T04:26:18.700Z,30.56
2023-05-08T04:27:18.772Z,30.55
2023-05-08T04:28:18.811Z,30.59
2023-05-08T04:29:18.818Z,30.59
2023-05-08T04:30:18.894Z,30.55
2023-05-08T04:31:18.984Z,30.57
2023-05-08T04:32:19.070Z,30.59
2023-05-08T04:33:19.160Z,30.60
2023-05-08T04:34:19.120Z,30.59
2023-05-08T04:35:19.171Z,30.62
2023-05-08T04:36:19.242Z,30.62
2023-05-08T04:37:19.293Z,30.56
2023-05-08T04:38:19.336Z,30.58
2023-05-08T04:39:19.400Z,30.61
2023-05-08T04:40:19.415Z,30.53
2023-05-08T04:41:19.512Z,30.55
2023-05-08T04:42:19.540Z,30.51
2023-05-08T04:43:19.534Z,30.55
2023-05-08T04:44:19.644Z,30.53
2023-05-08T04:45:19.707Z,30.51
2023-05-08T04:46:19.793Z,30.52
2023-05-08T04:47:19.836Z,30.57
2023-05-08T04:48:19.836Z,30.55
2023-05-08T04:49:19.936Z,30.54
2023-05-08T04:50:19.894Z,30.51
2023-05-08T04:51:19.999Z,30.51
2023-05-08T04:52:20.065Z,30.54
2023-05-08T04:53:20.115Z,30.54
2023-05-08T04:54:20.172Z,30.56
2023-05-08T04:55:20.230Z,30.56
2023-05-08T04:56:20.287Z,30.59
2023-05-08T04:57:20.327Z,30.52
2023-05-08T04:58:20.419Z,30.55
2023-05-08T04:59:20.475Z,30.53
2023-05-08T05:00:20.529Z,30.55
2023-05-08T05:01:20.564Z,30.56
2023-05-08T05:02:20.582Z,30.62
2023-05-08T05:03:20.598Z,30.58
2023-05-08T05:04:20.651Z,30.63
2023-05-08T05:05:20.670Z,30.66
2023-05-08T05:06:20.724Z,30.66
2023-05-08T05:07:20.768Z,30.62
2023-05-08T05:08:20.778Z,30.64
2023-05-08T05:09:20.856Z,30.64
2023-05-08T05:10:20.852Z,30.66
2023-05-08T05:11:20.952Z,30.60
2023-05-08T05:12:21.013Z,30.64
2023-05-08T05:13:21.021Z,30.61
2023-05-08T05:14:21.022Z,30.63
2023-05-08T05:15:21.081Z,30.65
2023-05-08T05:16:21.126Z,30.64
2023-05-08T05:17:21.138Z,30.67
2023-05-08T05:18:21.156Z,30.71
2023-05-08T05:19:21.209Z,30.67
2023-05-08T05:20:21.175Z,30.67
2023-05-08T05:21:21.233Z,30.69
2023-05-08T05:22:21.457Z,30.69
2023-05-08T05:23:21.222Z,30.72
2023-05-08T05:24:21.213Z,30.71
2023-05-08T05:25:21.302Z,30.72
2023-05-08T05:26:21.307Z,30.64
2023-05-08T05:27:21.445Z,30.63
2023-05-08T05:28:21.320Z,30.63
2023-05-08T05:29:21.332Z,30.69
2023-05-08T05:30:21.305Z,30.65
2023-05-08T05:31:21.414Z,30.70
2023-05-08T05:32:21.416Z,30.72
2023-05-08T05:33:21.355Z,31.74
2023-05-08T05:34:21.318Z,32.45
2023-05-08T05:35:22.139Z,33.42
2023-05-08T05:36:21.431Z,33.90
2023-05-08T05:37:21.491Z,34.22
2023-05-08T05:38:21.488Z,35.29
2023-05-08T05:39:21.496Z,35.50
2023-05-08T05:40:21.561Z,35.73
2023-05-08T05:41:21.565Z,36.00
2023-05-08T05:42:21.586Z,36.58
2023-05-08T05:43:21.607Z,36.25
2023-05-08T05:44:21.592Z,36.79
2023-05-08T05:45:21.605Z,36.63
2023-05-08T05:46:22.490Z,36.85
2023-05-08T05:47:22.524Z,36.58
2023-05-08T05:48:21.615Z,36.42
2023-05-08T05:49:21.581Z,36.35
2023-05-08T05:50:21.816Z,36.16
2023-05-08T05:51:21.734Z,36.05
2023-05-08T05:52:21.799Z,35.95
2023-05-08T05:53:21.954Z,35.91
2023-05-08T05:54:22.060Z,35.82
2023-05-08T05:55:21.909Z,35.83
2023-05-08T05:56:21.983Z,35.87
2023-05-08T05:57:22.436Z,35.88
2023-05-08T05:58:22.102Z,36.09
2023-05-08T05:59:22.092Z,36.02
2023-05-08T06:00:22.155Z,35.89
2023-05-08T06:01:22.161Z,35.72
2023-05-08T06:02:22.382Z,35.60
2023-05-08T06:03:22.302Z,35.44
2023-05-08T06:04:22.296Z,35.38
2023-05-08T06:05:22.389Z,35.28
2023-05-08T06:06:22.354Z,35.18
2023-05-08T06:07:22.405Z,34.92
2023-05-08T06:08:22.488Z,34.86
2023-05-08T06:09:22.475Z,34.86
2023-05-08T06:10:22.479Z,34.77
2023-05-08T06:11:22.485Z,34.79
2023-05-08T06:12:22.540Z,34.80
2023-05-08T06:13:22.594Z,34.99
2023-05-08T06:14:22.554Z,35.00
2023-05-08T06:15:22.612Z,34.83
2023-05-08T06:16:22.615Z,34.85
2023-05-08T06:17:22.609Z,34.78
2023-05-08T06:18:22.673Z,34.83
2023-05-08T06:19:22.595Z,34.96
2023-05-08T06:20:23.525Z,35.02
2023-05-08T06:21:22.659Z,34.95
2023-05-08T06:22:22.657Z,35.04
2023-05-08T06:23:22.724Z,35.06
2023-05-08T06:24:22.728Z,34.88
2023-05-08T06:25:22.730Z,34.85
2023-05-08T06:26:23.512Z,34.77
2023-05-08T06:27:22.862Z,34.74
2023-05-08T06:28:22.880Z,34.74
2023-05-08T06:29:22.788Z,34.79
2023-05-08T06:30:22.820Z,34.74
2023-05-08T06:31:22.815Z,34.79
2023-05-08T06:32:23.019Z,34.88
2023-05-08T06:33:24.671Z,34.96
2023-05-08T06:34:22.814Z,34.99
2023-05-08T06:35:22.963Z,34.99
2023-05-08T06:36:22.813Z,34.82
2023-05-08T06:37:22.829Z,34.74
2023-05-08T06:38:22.833Z,34.79
2023-05-08T06:39:22.793Z,34.95
2023-05-08T06:40:22.782Z,35.09
2023-05-08T06:41:25.449Z,34.92
2023-05-08T06:42:22.761Z,35.01
2023-05-08T06:43:22.764Z,35.04
2023-05-08T06:44:22.729Z,35.44
2023-05-08T06:45:22.737Z,35.17
2023-05-08T06:46:22.790Z,35.10
2023-05-08T06:47:22.810Z,35.87
2023-05-08T06:48:22.740Z,35.24
2023-05-08T06:49:22.696Z,35.15
2023-05-08T06:50:22.670Z,35.02
2023-05-08T06:51:22.713Z,35.10
2023-05-08T06:52:22.718Z,35.15
2023-05-08T06:53:22.684Z,35.06
2023-05-08T06:54:22.738Z,35.14
2023-05-08T06:55:22.748Z,35.20
2023-05-08T06:56:22.646Z,35.05
2023-05-08T06:57:22.652Z,35.05
2023-05-08T06:58:22.653Z,35.42
2023-05-08T06:59:22.657Z,35.52
2023-05-08T07:00:22.771Z,35.40
2023-05-08T07:01:22.667Z,35.47
2023-05-08T07:02:22.757Z,35.42
2023-05-08T07:03:22.582Z,35.49
2023-05-08T07:04:22.859Z,35.39
2023-05-08T07:05:22.560Z,35.37
2023-05-08T07:06:22.560Z,35.49
2023-05-08T07:07:22.626Z,35.25
2023-05-08T07:08:22.576Z,35.19
2023-05-08T07:09:22.530Z,35.30
2023-05-08T07:10:23.049Z,35.15
2023-05-08T07:11:22.662Z,35.10
2023-05-08T07:12:22.540Z,35.12
2023-05-08T07:13:22.590Z,35.24
2023-05-08T07:14:23.034Z,35.22
2023-05-08T07:15:26.338Z,35.44
2023-05-08T07:16:22.576Z,35.32
2023-05-08T07:17:22.468Z,35.18
2023-05-08T07:18:23.037Z,35.05
2023-05-08T07:19:22.775Z,35.03
2023-05-08T07:20:22.438Z,35.07
2023-05-08T07:21:22.582Z,34.96
2023-05-08T07:22:22.494Z,35.16
2023-05-08T07:23:22.479Z,35.30
2023-05-08T07:24:22.420Z,35.18
2023-05-08T07:25:22.447Z,35.30
2023-05-08T07:26:22.449Z,35.25
2023-05-08T07:27:22.473Z,35.22
2023-05-08T07:28:22.392Z,35.28
2023-05-08T07:29:22.458Z,35.24
2023-05-08T07:30:22.401Z,35.71
2023-05-08T07:31:22.455Z,36.20
2023-05-08T07:32:22.412Z,36.60
2023-05-08T07:33:22.336Z,36.36
2023-05-08T07:34:22.398Z,36.09
2023-05-08T07:35:22.729Z,36.21
2023-05-08T07:36:22.512Z,36.25
2023-05-08T07:37:22.562Z,36.00
2023-05-08T07:38:22.368Z,35.81
2023-05-08T07:39:22.332Z,35.88
2023-05-08T07:40:22.354Z,35.77
2023-05-08T07:41:22.373Z,35.73
2023-05-08T07:42:22.335Z,35.77
2023-05-08T07:43:22.397Z,35.70
2023-05-08T07:44:22.294Z,35.90
2023-05-08T07:45:22.311Z,35.93
2023-05-08T07:46:22.299Z,35.89
2023-05-08T07:47:22.431Z,35.88
2023-05-08T07:48:22.295Z,35.87
2023-05-08T07:49:22.381Z,35.88
2023-05-08T07:50:22.351Z,35.94
2023-05-08T07:51:22.219Z,35.92
2023-05-08T07:52:22.303Z,35.93
2023-05-08T07:53:22.211Z,35.90
2023-05-08T07:54:22.219Z,35.88
2023-05-08T07:55:22.221Z,35.94
2023-05-08T07:56:22.189Z,36.01
2023-05-08T07:57:22.391Z,35.90
2023-05-08T07:58:23.894Z,35.95
2023-05-08T07:59:22.563Z,36.11
2023-05-08T08:00:22.417Z,36.06
2023-05-08T08:01:22.468Z,35.93
2023-05-08T08:02:22.748Z,35.93
2023-05-08T08:03:22.693Z,35.93
2023-05-08T08:04:22.659Z,35.89
2023-05-08T08:05:22.758Z,35.95
2023-05-08T08:06:22.729Z,35.90
2023-05-08T08:07:22.810Z,35.93
2023-05-08T08:08:22.889Z,35.90
2023-05-08T08:09:22.933Z,35.98
2023-05-08T08:10:23.001Z,35.90
2023-05-08T08:11:23.012Z,35.96
2023-05-08T08:12:23.065Z,35.98
2023-05-08T08:13:23.213Z,35.95
2023-05-08T08:14:23.184Z,35.88
2023-05-08T08:15:23.263Z,35.88
2023-05-08T08:16:23.328Z,35.91
2023-05-08T08:17:23.532Z,36.00
2023-05-08T08:18:24.493Z,35.99
2023-05-08T08:19:23.402Z,36.05
2023-05-08T08:20:23.554Z,35.99
2023-05-08T08:21:23.526Z,36.00
2023-05-08T08:22:23.498Z,35.96
2023-05-08T08:23:23.543Z,36.11
2023-05-08T08:24:23.666Z,36.13
2023-05-08T08:25:23.657Z,36.14
2023-05-08T08:26:23.679Z,36.76
2023-05-08T08:27:23.787Z,36.46
2023-05-08T08:28:23.805Z,36.40
2023-05-08T08:29:24.053Z,36.30
2023-05-08T08:30:23.828Z,36.25
2023-05-08T08:31:23.956Z,36.27
2023-05-08T08:32:23.923Z,35.63
2023-05-08T08:33:24.075Z,35.53
2023-05-08T08:34:23.946Z,35.45
2023-05-08T08:35:24.068Z,35.65
2023-05-08T08:36:24.044Z,35.65
2023-05-08T08:37:24.184Z,35.77
2023-05-08T08:38:24.147Z,35.96
2023-05-08T08:39:24.221Z,36.31
2023-05-08T08:40:24.152Z,36.47
2023-05-08T08:41:24.182Z,36.74
2023-05-08T08:42:24.216Z,37.90
2023-05-08T08:43:24.284Z,37.76
2023-05-08T08:44:24.267Z,38.22
2023-05-08T08:45:24.305Z,38.62
2023-05-08T08:46:24.346Z,38.61
2023-05-08T08:47:24.355Z,38.38
2023-05-08T08:48:24.364Z,38.40
2023-05-08T08:49:24.490Z,38.59
2023-05-08T08:50:24.519Z,38.42
2023-05-08T08:51:24.452Z,38.10
2023-05-08T08:52:24.622Z,38.08
2023-05-08T08:53:24.582Z,37.99
2023-05-08T08:54:24.605Z,37.97
2023-05-08T08:55:24.705Z,38.12
2023-05-08T08:56:24.716Z,37.93
2023-05-08T08:57:25.037Z,37.91
2023-05-08T08:58:24.630Z,37.75
2023-05-08T08:59:24.683Z,38.81
2023-05-08T09:00:24.697Z,38.55
2023-05-08T09:01:24.785Z,38.10
2023-05-08T09:02:24.776Z,37.98
2023-05-08T09:03:24.879Z,38.04
2023-05-08T09:04:24.829Z,37.98
2023-05-08T09:05:24.789Z,38.49
2023-05-08T09:06:24.716Z,38.25
2023-05-08T09:07:24.862Z,38.11
2023-05-08T09:08:24.803Z,38.25
2023-05-08T09:09:24.891Z,38.11
2023-05-08T09:10:25.099Z,38.01
2023-05-08T09:11:24.954Z,37.96
2023-05-08T09:12:25.033Z,37.99
2023-05-08T09:13:25.106Z,38.08
2023-05-08T09:14:25.112Z,38.05
2023-05-08T09:15:25.208Z,38.46
2023-05-08T09:16:25.262Z,38.76
2023-05-08T09:17:25.631Z,38.58
2023-05-08T09:18:25.356Z,38.89
2023-05-08T09:19:28.088Z,38.44
2023-05-08T09:20:25.404Z,37.87
2023-05-08T09:21:25.518Z,38.15
2023-05-08T09:22:25.741Z,37.95
2023-05-08T09:23:25.338Z,38.16
2023-05-08T09:24:25.392Z,38.13
2023-05-08T09:25:25.612Z,38.32
2023-05-08T09:26:25.363Z,38.20
2023-05-08T09:27:25.329Z,38.84
2023-05-08T09:28:25.330Z,38.69
2023-05-08T09:29:25.329Z,39.10
2023-05-08T09:30:25.278Z,38.67
2023-05-08T09:31:25.379Z,38.38
2023-05-08T09:32:25.448Z,38.23
2023-05-08T09:33:25.281Z,38.05
2023-05-08T09:34:25.254Z,38.74
2023-05-08T09:35:25.287Z,38.36
2023-05-08T09:36:25.283Z,37.39
2023-05-08T09:37:25.356Z,37.29
2023-05-08T09:38:25.410Z,37.21
2023-05-08T09:39:25.299Z,37.50
2023-05-08T09:40:25.632Z,37.43
2023-05-08T09:41:25.239Z,37.52
2023-05-08T09:42:25.243Z,37.59
2023-05-08T09:43:25.213Z,37.62
2023-05-08T09:44:25.210Z,37.11
2023-05-08T09:45:26.082Z,37.27
2023-05-08T09:46:25.606Z,37.37
2023-05-08T09:47:25.344Z,37.28
2023-05-08T09:48:25.607Z,37.02
2023-05-08T09:49:25.188Z,36.27
2023-05-08T09:50:25.565Z,36.91
2023-05-08T09:51:25.170Z,37.03
2023-05-08T09:52:25.221Z,37.47
2023-05-08T09:53:25.221Z,37.23
2023-05-08T09:54:25.148Z,37.30
2023-05-08T09:55:25.124Z,37.36
2023-05-08T09:56:25.102Z,37.42
2023-05-08T09:57:25.324Z,37.49
2023-05-08T09:58:25.117Z,37.57
2023-05-08T09:59:25.150Z,37.70
2023-05-08T10:00:25.131Z,37.78
2023-05-08T10:01:25.220Z,37.75
2023-05-08T10:02:25.192Z,37.69
2023-05-08T10:03:25.115Z,37.69
2023-05-08T10:04:25.040Z,37.74
2023-05-08T10:05:25.121Z,37.80
2023-05-08T10:06:25.105Z,37.86
2023-05-08T10:07:25.062Z,37.95
2023-05-08T10:08:25.068Z,37.96
2023-05-08T10:09:27.316Z,37.97
2023-05-08T10:10:25.007Z,38.09
2023-05-08T10:11:24.990Z,38.19
2023-05-08T10:12:25.717Z,38.22
2023-05-08T10:13:25.100Z,38.24
2023-05-08T10:14:25.026Z,38.29
2023-05-08T10:15:25.022Z,38.38
2023-05-08T10:16:25.015Z,38.44
2023-05-08T10:17:25.061Z,38.42
2023-05-08T10:18:24.953Z,38.53
2023-05-08T10:19:24.996Z,38.55
2023-05-08T10:20:24.959Z,38.60
2023-05-08T10:21:24.922Z,38.63
2023-05-08T10:22:24.995Z,38.64
2023-05-08T10:23:25.007Z,38.80
2023-05-08T10:24:27.210Z,39.04
2023-05-08T10:25:24.906Z,38.83
2023-05-08T10:26:24.902Z,38.39
2023-05-08T10:27:24.897Z,37.70
2023-05-08T10:28:25.025Z,37.47
2023-05-08T10:29:24.908Z,37.34
2023-05-08T10:30:24.969Z,37.46
2023-05-08T10:31:25.108Z,37.52
2023-05-08T10:32:25.230Z,37.73
2023-05-08T10:33:25.037Z,37.70
2023-05-08T10:34:25.978Z,37.81
2023-05-08T10:35:25.162Z,37.99
2023-05-08T10:36:25.287Z,38.08
2023-05-08T10:37:25.175Z,38.10
2023-05-08T10:38:25.289Z,38.19
2023-05-08T10:39:25.303Z,38.31
2023-05-08T10:40:25.312Z,38.35
2023-05-08T10:41:25.323Z,38.44
2023-05-08T10:42:25.235Z,38.37
2023-05-08T10:43:25.255Z,38.57
2023-05-08T10:44:25.245Z,38.55
2023-05-08T10:45:25.650Z,38.64
2023-05-08T10:46:25.327Z,38.78
2023-05-08T10:47:25.313Z,38.82
2023-05-08T10:48:25.269Z,38.86
2023-05-08T10:49:25.308Z,38.94
2023-05-08T10:50:25.460Z,39.07
2023-05-08T10:51:25.362Z,38.92
2023-05-08T10:52:25.427Z,39.07
2023-05-08T10:53:25.609Z,39.09
2023-05-08T10:54:25.898Z,39.11
2023-05-08T10:55:25.636Z,39.12
2023-05-08T10:56:25.619Z,39.22
2023-05-08T10:57:25.740Z,39.29
2023-05-08T10:58:25.826Z,39.31
2023-05-08T10:59:25.870Z,39.38
2023-05-08T11:00:26.493Z,39.28
2023-05-08T11:01:26.041Z,39.31
2023-05-08T11:02:26.075Z,39.32
2023-05-08T11:03:32.048Z,39.28
2023-05-08T11:04:27.191Z,39.31
2023-05-08T11:05:26.006Z,39.31
2023-05-08T11:06:26.115Z,39.43
2023-05-08T11:07:26.022Z,39.52
2023-05-08T11:08:26.114Z,39.43
2023-05-08T11:09:26.008Z,39.48
2023-05-08T11:10:25.946Z,39.58
2023-05-08T11:11:26.068Z,39.65
2023-05-08T11:12:26.113Z,39.69
2023-05-08T11:13:26.087Z,39.69
2023-05-08T11:14:26.182Z,39.78
2023-05-08T11:15:26.165Z,39.91
2023-05-08T11:16:26.245Z,39.95
2023-05-08T11:17:26.391Z,40.07
2023-05-08T11:18:28.116Z,40.10
2023-05-08T11:19:27.275Z,40.11
2023-05-08T11:20:26.250Z,40.27
2023-05-08T11:21:26.285Z,40.31
2023-05-08T11:22:26.305Z,40.41
2023-05-08T11:23:26.252Z,40.83
2023-05-08T11:24:26.622Z,40.50
2023-05-08T11:25:26.215Z,40.35
2023-05-08T11:26:26.219Z,39.13
2023-05-08T11:27:26.233Z,38.18
2023-05-08T11:28:26.234Z,37.65
2023-05-08T11:29:26.212Z,37.50
2023-05-08T11:30:26.176Z,37.31
2023-05-08T11:31:26.302Z,37.29
2023-05-08T11:32:26.256Z,36.56
2023-05-08T11:33:26.218Z,36.47
2023-05-08T11:34:26.290Z,36.32
2023-05-08T11:35:26.329Z,36.30
2023-05-08T11:36:26.391Z,36.24
2023-05-08T11:37:26.397Z,36.23
2023-05-08T11:38:26.465Z,36.11
2023-05-08T11:39:26.551Z,36.12
2023-05-08T11:40:26.552Z,36.08
2023-05-08T11:41:26.639Z,35.95
2023-05-08T11:42:26.676Z,35.93
2023-05-08T11:43:26.749Z,35.89
2023-05-08T11:44:26.798Z,35.98
2023-05-08T11:45:26.868Z,36.11
2023-05-08T11:46:26.950Z,36.10
2023-05-08T11:47:26.932Z,36.12
2023-05-08T11:48:26.986Z,36.12
2023-05-08T11:49:29.512Z,36.17
2023-05-08T11:50:26.937Z,36.16
2023-05-08T11:51:26.935Z,36.18
2023-05-08T11:52:26.937Z,36.13
2023-05-08T11:53:27.003Z,36.05
2023-05-08T11:54:26.937Z,36.16
2023-05-08T11:55:26.922Z,35.96
2023-05-08T11:56:26.911Z,35.90
2023-05-08T11:57:26.935Z,35.84
2023-05-08T11:58:26.881Z,35.95
2023-05-08T11:59:26.908Z,35.73
2023-05-08T12:00:26.915Z,35.70
2023-05-08T12:01:26.874Z,35.76
2023-05-08T12:02:26.902Z,35.69
2023-05-08T12:03:26.963Z,35.69
2023-05-08T12:04:27.011Z,35.71
2023-05-08T12:05:26.828Z,35.62
2023-05-08T12:06:26.829Z,35.67
2023-05-08T12:07:26.832Z,35.60
2023-05-08T12:08:26.821Z,35.56
2023-05-08T12:09:26.833Z,35.55
2023-05-08T12:10:26.841Z,35.46
2023-05-08T12:11:26.848Z,35.51
2023-05-08T12:12:26.760Z,35.52
2023-05-08T12:13:26.998Z,35.57
2023-05-08T12:14:26.843Z,35.61
2023-05-08T12:15:26.760Z,35.62
2023-05-08T12:16:26.773Z,35.71
2023-05-08T12:17:26.887Z,35.72
2023-05-08T12:18:26.809Z,35.73
2023-05-08T12:19:26.716Z,35.71
2023-05-08T12:20:26.726Z,35.80
2023-05-08T12:21:26.701Z,35.81
2023-05-08T12:22:26.725Z,35.96
2023-05-08T12:23:26.717Z,35.93
2023-05-08T12:24:26.790Z,36.04
2023-05-08T12:25:27.396Z,35.92
2023-05-08T12:26:26.682Z,35.76
2023-05-08T12:27:26.684Z,35.77
2023-05-08T12:28:26.716Z,35.77
2023-05-08T12:29:26.661Z,35.78
2023-05-08T12:30:26.674Z,35.79
2023-05-08T12:31:26.707Z,35.93
2023-05-08T12:32:28.992Z,35.94
2023-05-08T12:33:26.760Z,35.92
2023-05-08T12:34:26.805Z,35.92
2023-05-08T12:35:26.813Z,35.91
2023-05-08T12:36:26.802Z,35.88
2023-05-08T12:37:26.806Z,35.85
2023-05-08T12:38:26.808Z,35.83
2023-05-08T12:39:26.827Z,35.76
2023-05-08T12:40:26.839Z,35.63
2023-05-08T12:41:26.850Z,35.62
2023-05-08T12:42:26.850Z,35.62
2023-05-08T12:43:26.841Z,35.55
2023-05-08T12:44:26.840Z,35.52
2023-05-08T12:45:26.880Z,35.42
2023-05-08T12:46:26.898Z,35.47
2023-05-08T12:47:26.946Z,35.44
2023-05-08T12:48:27.001Z,35.42
2023-05-08T12:49:26.943Z,35.29
2023-05-08T12:50:26.947Z,35.29
2023-05-08T12:51:26.957Z,35.22
2023-05-08T12:52:26.953Z,35.15